createdAt,value
2018-04-25T00:17:51.802Z,100753.53
2018-04-25T00:20:19.272Z,100739.34
2018-04-25T00:22:46.724Z,100744.23
2018-04-25T00:25:15.219Z,100734.98
2018-04-25T00:27:42.681Z,100734.92
2018-04-25T00:30:10.173Z,100725.98
2018-04-25T00:32:37.680Z,100706.28
2018-04-25T00:35:05.158Z,100707.84
2018-04-25T00:37:32.611Z,100705.33
2018-04-25T00:40:00.091Z,100699.75
2018-04-25T00:42:27.548Z,100695.66
2018-04-25T00:44:55.044Z,100682.45
2018-04-25T00:47:22.503Z,100672.85
2018-04-25T00:49:49.980Z,100674.77
2018-04-25T00:52:17.561Z,100669.62
2018-04-25T00:54:45.024Z,100655.98
2018-04-25T00:57:12.507Z,100656.95
2018-04-25T00:59:40.819Z,100623.47
2018-04-25T01:02:08.299Z,100608.75
2018-04-25T01:04:35.743Z,100616.48
2018-04-25T01:07:03.231Z,100623.48
2018-04-25T01:09:30.691Z,100604.20
2018-04-25T01:11:58.375Z,100591.86
2018-04-25T01:14:25.783Z,100582.59
2018-04-25T01:16:53.327Z,100575.05
2018-04-25T01:19:20.786Z,100572.52
2018-04-25T01:21:48.961Z,100558.27
2018-04-25T01:24:16.415Z,100565.02
2018-04-25T01:26:43.970Z,100567.30
2018-04-25T01:29:11.489Z,100561.55
2018-04-25T01:31:48.928Z,100553.86
2018-04-25T01:34:18.945Z,100546.55
2018-04-25T01:36:50.391Z,100541.07
2018-04-25T01:39:20.583Z,100538.13
2018-04-25T01:41:48.027Z,100523.77
2018-04-25T01:44:21.464Z,100513.86
2018-04-25T01:46:48.907Z,100513.55
2018-04-25T01:49:20.992Z,100512.14
2018-04-25T01:52:00.258Z,100511.95
2018-04-25T01:54:39.475Z,100496.78
2018-04-25T01:57:18.792Z,100478.66
2018-04-25T01:59:58.222Z,100483.18
2018-04-25T02:02:25.127Z,100467.02
2018-04-25T02:04:52.630Z,100447.28
2018-04-25T02:07:20.071Z,100446.63
2018-04-25T02:09:47.543Z,100448.88
2018-04-25T02:12:14.992Z,100444.73
2018-04-25T02:14:42.458Z,100421.02
2018-04-25T02:17:09.903Z,100424.22
2018-04-25T02:19:37.366Z,100422.84
2018-04-25T02:22:04.807Z,100414.88
2018-04-25T02:24:32.788Z,100396.98
2018-04-25T02:27:00.238Z,100387.31
2018-04-25T02:29:27.691Z,100383.00
2018-04-25T02:31:55.263Z,100373.16
2018-04-25T02:34:22.717Z,100364.08
2018-04-25T02:36:50.275Z,100354.88
2018-04-25T02:39:17.733Z,100352.84
2018-04-25T02:41:45.219Z,100350.05
2018-04-25T02:44:12.667Z,100336.84
2018-04-25T02:46:40.155Z,100329.41
2018-04-25T02:49:07.613Z,100333.34
2018-04-25T02:51:35.123Z,100317.09
2018-04-25T02:54:02.579Z,100302.35
2018-04-25T02:56:30.037Z,100288.92
2018-04-25T02:58:57.536Z,100297.23
2018-04-25T03:01:24.993Z,100287.49
2018-04-25T03:03:52.481Z,100283.61
2018-04-25T03:06:19.943Z,100282.24
2018-04-25T03:08:47.426Z,100278.44
2018-04-25T03:11:14.883Z,100267.98
2018-04-25T03:13:42.363Z,100259.77
2018-04-25T03:16:09.812Z,100247.16
2018-04-25T03:18:37.291Z,100246.12
2018-04-25T03:21:04.815Z,100249.37
2018-04-25T03:23:32.304Z,100235.62
2018-04-25T03:25:59.764Z,100222.99
2018-04-25T03:28:27.252Z,100222.97
2018-04-25T03:30:54.704Z,100217.45
2018-04-25T03:33:22.205Z,100208.22
2018-04-25T03:35:49.691Z,100210.77
2018-04-25T03:38:17.147Z,100219.16
2018-04-25T03:40:44.679Z,100203.88
2018-04-25T03:43:12.139Z,100191.52
2018-04-25T03:45:39.646Z,100183.17
2018-04-25T03:48:07.096Z,100173.25
2018-04-25T03:50:34.600Z,100170.10
2018-04-25T03:53:02.164Z,100165.19
2018-04-25T03:55:29.647Z,100163.47
2018-04-25T03:57:57.095Z,100162.42
2018-04-25T04:00:24.574Z,100148.67
2018-04-25T04:02:52.039Z,100129.50
2018-04-25T04:05:19.529Z,100137.45
2018-04-25T04:07:46.991Z,100129.19
2018-04-25T04:10:14.458Z,100131.25
2018-04-25T04:12:41.939Z,100125.64
2018-04-25T04:15:09.407Z,100126.67
2018-04-25T04:17:36.894Z,100114.18
2018-04-25T04:20:04.387Z,100107.39
2018-04-25T04:22:31.876Z,100102.59
2018-04-25T04:24:59.328Z,100102.93
2018-04-25T04:27:26.816Z,100101.31
2018-04-25T04:29:54.268Z,100096.62
2018-04-25T04:32:21.844Z,100094.56
2018-04-25T04:34:49.299Z,100088.27
2018-04-25T04:37:16.788Z,100084.39
2018-04-25T04:39:44.244Z,100085.45
2018-04-25T04:42:11.803Z,100082.33
2018-04-25T04:44:39.364Z,100084.50
2018-04-25T04:47:06.820Z,100080.00
2018-04-25T04:49:34.332Z,100074.77
2018-04-25T04:52:01.772Z,100070.81
2018-04-25T04:54:29.264Z,100072.25
2018-04-25T04:56:56.724Z,100073.84
2018-04-25T04:59:24.240Z,100066.84
2018-04-25T05:01:51.771Z,100076.66
2018-04-25T05:04:19.251Z,100073.41
2018-04-25T05:06:46.704Z,100063.40
2018-04-25T05:09:14.201Z,100065.24
2018-04-25T05:11:41.646Z,100073.38
2018-04-25T05:14:09.142Z,100066.59
2018-04-25T05:16:36.596Z,100068.23
2018-04-25T05:19:04.080Z,100067.32
2018-04-25T05:21:31.526Z,100062.14
2018-04-25T05:23:59.020Z,100070.25
2018-04-25T05:26:26.470Z,100065.81
2018-04-25T05:28:53.922Z,100053.91
2018-04-25T05:31:21.411Z,100052.41
2018-04-25T05:33:48.873Z,100054.25
2018-04-25T05:36:16.356Z,100048.78
2018-04-25T05:38:43.830Z,100048.27
2018-04-25T05:41:11.320Z,100052.67
2018-04-25T05:43:38.792Z,100047.16
2018-04-25T05:46:06.362Z,100058.45
2018-04-25T05:48:33.854Z,100058.06
2018-04-25T05:51:01.516Z,100067.00
2018-04-25T05:53:28.971Z,100050.50
2018-04-25T05:55:56.467Z,100034.25
2018-04-25T05:58:23.933Z,100043.28
2018-04-25T06:00:51.449Z,100045.72
2018-04-25T06:03:19.021Z,100040.10
2018-04-25T06:05:46.488Z,100037.78
2018-04-25T06:08:13.983Z,100033.54
2018-04-25T06:10:41.428Z,100035.48
2018-04-25T06:13:08.929Z,100035.70
2018-04-25T06:15:36.381Z,100025.16
2018-04-25T06:18:03.871Z,100039.86
2018-04-25T06:20:31.332Z,100015.14
2018-04-25T06:22:58.822Z,100021.21
2018-04-25T06:25:26.295Z,100013.82
2018-04-25T06:27:53.786Z,100016.48
2018-04-25T06:30:21.240Z,100022.48
2018-04-25T06:32:48.723Z,100009.95
2018-04-25T06:35:16.176Z,100010.92
2018-04-25T06:37:43.659Z,100006.64
2018-04-25T06:40:11.120Z,100004.97
2018-04-25T06:42:38.618Z,99995.88
2018-04-25T06:45:06.149Z,99991.95
2018-04-25T06:47:33.540Z,99990.21
2018-04-25T06:50:01.028Z,99986.41
2018-04-25T06:52:29.397Z,99987.44
2018-04-25T06:54:56.877Z,99992.20
2018-04-25T06:57:24.382Z,99982.55
2018-04-25T06:59:51.875Z,100000.20
2018-04-25T07:02:19.323Z,99982.84
2018-04-25T07:04:46.807Z,100003.83
2018-04-25T07:07:14.307Z,99977.20
2018-04-25T07:09:41.792Z,99979.05
2018-04-25T07:14:59.796Z,99982.46
2018-04-25T07:17:27.217Z,99993.44
2018-04-25T07:19:54.672Z,99972.55
2018-04-25T07:22:22.105Z,99980.20
2018-04-25T07:24:49.599Z,100015.98
2018-04-25T07:27:17.100Z,99988.06
2018-04-25T07:29:44.529Z,99974.53
2018-04-25T07:32:11.989Z,99982.20
2018-04-25T07:34:39.416Z,99991.64
2018-04-25T07:37:07.025Z,99989.25
2018-04-25T07:39:34.451Z,99987.75
2018-04-25T07:42:01.965Z,99984.83
2018-04-25T07:44:29.348Z,99994.45
2018-04-25T07:46:56.804Z,99996.86
2018-04-25T07:49:24.288Z,100005.64
2018-04-25T07:51:51.752Z,100006.55
2018-04-25T07:54:19.216Z,100009.28
2018-04-25T07:56:46.697Z,100013.89
2018-04-25T07:59:14.236Z,100014.22
2018-04-25T08:01:41.669Z,100007.73
2018-04-25T08:04:09.135Z,100019.42
2018-04-25T08:06:36.577Z,100009.39
2018-04-25T08:09:04.041Z,100029.70
2018-04-25T08:11:31.481Z,100019.11
2018-04-25T08:14:10.956Z,100018.34
2018-04-25T08:16:50.280Z,100019.74
2018-04-25T08:19:29.414Z,100012.27
2018-04-25T08:21:56.845Z,100026.16
2018-04-25T08:24:24.368Z,100023.84
2018-04-25T08:26:51.765Z,100028.39
2018-04-25T08:29:19.238Z,100039.30
2018-04-25T08:31:46.700Z,100054.28
2018-04-25T08:34:14.238Z,100052.40
2018-04-25T08:36:41.606Z,100059.45
2018-04-25T08:39:09.119Z,100080.22
2018-04-25T08:41:36.520Z,100078.85
2018-04-25T08:44:03.984Z,100087.66
2018-04-25T08:46:31.417Z,100092.69
2018-04-25T08:48:58.908Z,100094.69
2018-04-25T08:51:26.350Z,100094.02
2018-04-25T08:53:53.913Z,100103.75
2018-04-25T08:56:21.345Z,100099.30
2018-04-25T08:58:48.826Z,100106.84
2018-04-25T09:01:16.278Z,100100.44
2018-04-25T09:03:43.707Z,100113.45
2018-04-25T09:06:11.200Z,100112.48
2018-04-25T09:08:38.633Z,100115.07
2018-04-25T09:11:06.097Z,100117.80
2018-04-25T09:13:33.529Z,100122.08
2018-04-25T09:16:01.001Z,100133.51
2018-04-25T09:18:28.428Z,100137.47
2018-04-25T09:20:55.880Z,100146.38
2018-04-25T09:23:23.311Z,100151.46
2018-04-25T09:25:50.806Z,100146.64
2018-04-25T09:28:18.309Z,100157.06
2018-04-25T09:30:45.792Z,100169.47
2018-04-25T09:33:13.296Z,100173.13
2018-04-25T09:35:40.799Z,100174.02
2018-04-25T09:38:08.253Z,100176.97
2018-04-25T09:40:35.691Z,100188.87
2018-04-25T09:43:03.150Z,100192.16
2018-04-25T09:45:30.581Z,100219.03
2018-04-25T09:47:58.036Z,100240.20
2018-04-25T09:50:25.474Z,100250.64
2018-04-25T09:52:52.924Z,100260.72
2018-04-25T09:55:20.543Z,100275.83
2018-04-25T09:57:48.043Z,100279.83
2018-04-25T10:00:15.436Z,100291.95
2018-04-25T10:02:42.896Z,100300.56
2018-04-25T10:05:10.322Z,100311.84
2018-04-25T10:07:37.775Z,100308.56
2018-04-25T10:10:05.193Z,100319.99
2018-04-25T10:12:32.838Z,100343.90
2018-04-25T10:15:00.310Z,100349.74
2018-04-25T10:17:27.738Z,100350.42
2018-04-25T10:19:55.202Z,100363.94
2018-04-25T10:22:22.633Z,100372.61
2018-04-25T10:24:50.223Z,100380.82
2018-04-25T10:27:17.659Z,100387.86
2018-04-25T10:29:45.235Z,100395.57
2018-04-25T10:32:12.704Z,100407.82
2018-04-25T10:34:40.157Z,100408.43
2018-04-25T10:37:07.605Z,100417.17
2018-04-25T10:39:35.165Z,100423.63
2018-04-25T10:42:03.504Z,100430.86
2018-04-25T10:44:31.004Z,100442.03
2018-04-25T10:46:58.428Z,100458.57
2018-04-25T10:49:25.909Z,100458.06
2018-04-25T10:51:53.370Z,100473.97
2018-04-25T10:54:20.821Z,100483.25
2018-04-25T10:56:48.284Z,100495.56
2018-04-25T10:59:15.720Z,100504.17
2018-04-25T11:01:43.181Z,100508.61
2018-04-25T11:04:10.656Z,100521.95
2018-04-25T11:06:38.113Z,100532.25
2018-04-25T11:09:05.541Z,100536.80
2018-04-25T11:11:33.000Z,100540.61
2018-04-25T11:14:00.466Z,100535.90
2018-04-25T11:16:27.921Z,100544.24
2018-04-25T11:18:55.361Z,100550.13
2018-04-25T11:21:22.824Z,100561.71
2018-04-25T11:23:50.248Z,100571.92
2018-04-25T11:26:17.696Z,100575.98
2018-04-25T11:28:45.129Z,100585.58
2018-04-25T11:31:12.671Z,100595.61
2018-04-25T11:33:40.139Z,100602.74
2018-04-25T11:36:07.570Z,100603.35
2018-04-25T11:38:35.026Z,100606.31
2018-04-25T11:41:02.449Z,100604.88
2018-04-25T11:43:29.900Z,100607.78
2018-04-25T11:45:57.396Z,100618.89
2018-04-25T11:48:24.853Z,100634.52
2018-04-25T11:50:52.282Z,100638.92
2018-04-25T11:53:19.733Z,100638.45
2018-04-25T11:55:47.168Z,100641.13
2018-04-25T11:58:14.670Z,100642.45
2018-04-25T12:00:42.097Z,100656.67
2018-04-25T12:03:09.597Z,100649.81
2018-04-25T12:05:37.048Z,100656.59
2018-04-25T12:08:04.517Z,100666.28
2018-04-25T12:10:31.936Z,100669.31
2018-04-25T12:12:59.360Z,100667.06
2018-04-25T12:15:26.826Z,100684.17
2018-04-25T12:17:54.257Z,100680.94
2018-04-25T12:20:22.669Z,100678.73
2018-04-25T12:22:50.168Z,100686.98
2018-04-25T12:25:17.624Z,100699.84
2018-04-25T12:27:45.077Z,100700.95
2018-04-25T12:30:12.528Z,100699.28
2018-04-25T12:32:39.953Z,100710.20
2018-04-25T12:35:07.457Z,100702.76
2018-04-25T12:37:34.888Z,100708.52
2018-04-25T12:40:02.345Z,100716.17
2018-04-25T12:42:29.776Z,100725.98
2018-04-25T12:44:57.225Z,100726.33
2018-04-25T12:47:24.656Z,100733.22
2018-04-25T12:49:52.224Z,100739.52
2018-04-25T12:52:20.565Z,100740.52
2018-04-25T12:54:48.021Z,100747.41
2018-04-25T12:57:15.456Z,100740.84
2018-04-25T12:59:42.907Z,100749.64
2018-04-25T13:02:10.352Z,100751.09
2018-04-25T13:04:37.880Z,100749.11
2018-04-25T13:07:05.395Z,100756.39
2018-04-25T13:09:32.857Z,100752.80
2018-04-25T13:12:00.289Z,100756.45
2018-04-25T13:14:27.757Z,100762.73
2018-04-25T13:16:55.182Z,100766.75
2018-04-25T13:19:22.588Z,100760.81
2018-04-25T13:21:50.042Z,100776.39
2018-04-25T13:24:17.458Z,100774.02
2018-04-25T13:26:44.890Z,100788.38
2018-04-25T13:29:12.306Z,100782.84
2018-04-25T13:31:39.766Z,100796.91
2018-04-25T13:34:07.214Z,100804.50
2018-04-25T13:36:34.746Z,100806.13
2018-04-25T13:39:02.164Z,100784.91
2018-04-25T13:41:29.678Z,100811.52
2018-04-25T13:43:57.252Z,100804.42
2018-04-25T13:46:24.744Z,100812.50
2018-04-25T13:48:52.185Z,100818.41
2018-04-25T13:51:19.630Z,100806.72
2018-04-25T13:53:47.068Z,100791.20
2018-04-25T13:56:14.638Z,100815.56
2018-04-25T13:58:42.042Z,100828.66
2018-04-25T14:01:09.456Z,100819.62
2018-04-25T14:03:36.901Z,100808.83
2018-04-25T14:06:04.313Z,100811.88
2018-04-25T14:08:31.756Z,100819.20
2018-04-25T14:10:59.162Z,100820.48
2018-04-25T14:13:26.602Z,100830.80
2018-04-25T14:15:54.005Z,100830.63
2018-04-25T14:18:21.442Z,100832.97
2018-04-25T14:20:48.854Z,100835.50
2018-04-25T14:23:16.299Z,100836.70
2018-04-25T14:25:43.806Z,100828.41
2018-04-25T14:28:11.266Z,100837.85
2018-04-25T14:30:38.718Z,100833.23
2018-04-25T14:33:06.163Z,100842.58
2018-04-25T14:35:33.573Z,100855.14
2018-04-25T14:38:01.090Z,100853.30
2018-04-25T14:40:28.504Z,100857.83
2018-04-25T14:42:55.979Z,100849.88
2018-04-25T14:45:23.430Z,100857.28
2018-04-25T14:47:50.843Z,100866.11
2018-04-25T14:50:18.280Z,100866.16
2018-04-25T14:52:45.693Z,100873.40
2018-04-25T14:55:13.135Z,100880.55
2018-04-25T14:57:40.546Z,100894.22
2018-04-25T15:00:07.993Z,100890.97
2018-04-25T15:02:35.409Z,100876.84
2018-04-25T15:05:02.880Z,100892.92
2018-04-25T15:07:30.285Z,100886.20
2018-04-25T15:09:57.770Z,100896.49
2018-04-25T15:12:25.262Z,100885.52
2018-04-25T15:14:52.718Z,100893.06
2018-04-25T15:17:20.133Z,100892.31
2018-04-25T15:19:47.676Z,100899.38
2018-04-25T15:22:15.005Z,100891.73
2018-04-25T15:24:42.411Z,100897.14
2018-04-25T15:27:09.894Z,100891.63
2018-04-25T15:29:37.306Z,100891.58
2018-04-25T15:34:55.498Z,100894.42
2018-04-25T15:37:23.031Z,100905.04
2018-04-25T15:39:51.417Z,100906.64
2018-04-25T15:42:18.887Z,100921.91
2018-04-25T15:44:46.346Z,100906.77
2018-04-25T15:47:13.803Z,100908.95
2018-04-25T15:49:41.248Z,100910.95
2018-04-25T15:52:09.672Z,100906.61
2018-04-25T15:54:37.119Z,100899.69
2018-04-25T15:57:04.608Z,100913.38
2018-04-25T15:59:32.045Z,100921.17
2018-04-25T16:01:59.550Z,100922.88
2018-04-25T16:04:27.040Z,100905.61
2018-04-25T16:06:54.456Z,100914.48
2018-04-25T16:09:21.920Z,100918.52
2018-04-25T16:11:49.432Z,100916.34
2018-04-25T16:14:16.884Z,100912.61
2018-04-25T16:16:44.311Z,100915.05
2018-04-25T16:19:11.765Z,100917.10
2018-04-25T16:21:39.246Z,100914.87
2018-04-25T16:24:06.706Z,100923.09
2018-04-25T16:26:34.148Z,100928.45
2018-04-25T16:29:01.618Z,100924.09
2018-04-25T16:31:29.058Z,100936.39
2018-04-25T16:33:56.524Z,100937.41
2018-04-25T16:36:24.055Z,100936.51
2018-04-25T16:38:51.503Z,100947.24
2018-04-25T16:41:18.951Z,100935.23
2018-04-25T16:43:46.413Z,100932.55
2018-04-25T16:46:13.845Z,100924.10
2018-04-25T16:48:41.423Z,100910.52
2018-04-25T16:51:08.863Z,100923.97
2018-04-25T16:53:36.320Z,100930.09
2018-04-25T16:56:03.789Z,100931.25
2018-04-25T16:58:31.252Z,100935.05
2018-04-25T17:00:59.636Z,100919.80
2018-04-25T17:03:27.065Z,100915.13
2018-04-25T17:05:54.531Z,100917.85
2018-04-25T17:08:21.959Z,100912.98
2018-04-25T17:10:49.426Z,100912.95
2018-04-25T17:13:16.917Z,100912.04
2018-04-25T17:15:44.377Z,100906.49
2018-04-25T17:18:11.839Z,100895.28
2018-04-25T17:20:39.388Z,100892.36
2018-04-25T17:23:06.953Z,100890.06
2018-04-25T17:25:34.421Z,100895.27
2018-04-25T17:28:01.839Z,100889.73
2018-04-25T17:30:29.288Z,100889.67
2018-04-25T17:32:56.794Z,100879.19
2018-04-25T17:35:24.328Z,100875.84
2018-04-25T17:37:51.764Z,100866.78
2018-04-25T17:40:19.193Z,100874.06
2018-04-25T17:42:46.721Z,100868.98
2018-04-25T17:45:14.095Z,100867.38
2018-04-25T17:47:41.556Z,100868.83
2018-04-25T17:50:08.980Z,100871.73
2018-04-25T17:52:36.444Z,100863.97
2018-04-25T17:55:03.887Z,100867.92
2018-04-25T17:57:31.605Z,100872.92
2018-04-25T17:59:59.001Z,100876.84
2018-04-25T18:02:26.500Z,100871.83
2018-04-25T18:04:53.929Z,100868.56
2018-04-25T18:07:21.408Z,100875.06
2018-04-25T18:09:48.838Z,100870.58
2018-04-25T18:12:16.349Z,100876.92
2018-04-25T18:14:43.781Z,100875.22
2018-04-25T18:17:11.321Z,100872.66
2018-04-25T18:19:38.692Z,100876.27
2018-04-25T18:22:06.156Z,100884.72
2018-04-25T18:24:33.576Z,100884.38
2018-04-25T18:27:01.016Z,100889.68
2018-04-25T18:29:28.482Z,100891.34
2018-04-25T18:31:55.911Z,100901.58
2018-04-25T18:34:23.401Z,100894.80
2018-04-25T18:36:50.824Z,100898.61
2018-04-25T18:39:18.280Z,100903.14
2018-04-25T18:41:45.763Z,100908.59
2018-04-25T18:44:13.221Z,100912.33
2018-04-25T18:46:40.646Z,100922.16
2018-04-25T18:49:08.108Z,100910.42
2018-04-25T18:51:35.541Z,100905.13
2018-04-25T18:54:03.053Z,100907.40
2018-04-25T18:56:30.477Z,100899.98
2018-04-25T18:58:57.961Z,100903.59
2018-04-25T19:01:25.394Z,100899.92
2018-04-25T19:03:52.848Z,100906.20
2018-04-25T19:06:20.344Z,100901.27
2018-04-25T19:08:47.884Z,100906.56
2018-04-25T19:11:15.318Z,100899.28
2018-04-25T19:13:42.781Z,100905.06
2018-04-25T19:16:10.269Z,100906.44
2018-04-25T19:18:37.725Z,100905.42
2018-04-25T19:21:05.185Z,100906.38
2018-04-25T19:23:32.612Z,100915.31
2018-04-25T19:26:00.146Z,100916.37
2018-04-25T19:28:27.512Z,100916.38
2018-04-25T19:30:54.978Z,100917.52
2018-04-25T19:33:22.469Z,100917.27
2018-04-25T19:35:49.928Z,100920.77
2018-04-25T19:38:17.356Z,100918.94
2018-04-25T19:40:44.836Z,100918.44
2018-04-25T19:43:12.256Z,100911.55
2018-04-25T19:45:39.712Z,100909.95
2018-04-25T19:48:07.143Z,100911.39
2018-04-25T19:50:34.597Z,100913.39
2018-04-25T19:53:02.115Z,100907.99
2018-04-25T19:55:29.553Z,100908.52
2018-04-25T19:57:57.946Z,100907.83
2018-04-25T20:00:25.381Z,100913.12
2018-04-25T20:02:52.846Z,100911.02
2018-04-25T20:05:20.285Z,100903.89
2018-04-25T20:07:47.745Z,100911.27
2018-04-25T20:10:15.234Z,100902.59
2018-04-25T20:12:42.699Z,100900.63
2018-04-25T20:15:10.140Z,100906.47
2018-04-25T20:17:37.701Z,100909.01
2018-04-25T20:20:05.152Z,100900.92
2018-04-25T20:22:32.621Z,100899.67
2018-04-25T20:25:00.049Z,100897.48
2018-04-25T20:27:27.514Z,100899.67
2018-04-25T20:29:54.948Z,100904.36
2018-04-25T20:32:22.443Z,100897.08
2018-04-25T20:34:49.893Z,100901.23
2018-04-25T20:37:17.344Z,100898.20
2018-04-25T20:39:44.794Z,100899.80
2018-04-25T20:42:12.228Z,100906.27
2018-04-25T20:44:39.698Z,100903.55
2018-04-25T20:47:07.120Z,100909.66
2018-04-25T20:49:34.586Z,100910.31
2018-04-25T20:52:02.089Z,100903.83
2018-04-25T20:54:29.541Z,100901.64
2018-04-25T20:56:56.973Z,100902.28
2018-04-25T20:59:24.519Z,100897.78
2018-04-25T21:01:52.029Z,100895.83
2018-04-25T21:04:19.488Z,100898.25
2018-04-25T21:06:46.922Z,100900.09
2018-04-25T21:09:14.391Z,100901.76
2018-04-25T21:11:41.950Z,100902.00
2018-04-25T21:14:09.416Z,100897.53
2018-04-25T21:16:36.850Z,100903.53
2018-04-25T21:19:04.290Z,100897.36
2018-04-25T21:21:31.756Z,100900.21
2018-04-25T21:23:59.286Z,100894.37
2018-04-25T21:26:26.717Z,100897.59
2018-04-25T21:28:54.152Z,100892.19
2018-04-25T21:31:21.660Z,100887.73
2018-04-25T21:33:49.177Z,100888.61
2018-04-25T21:36:16.735Z,100889.64
2018-04-25T21:38:44.168Z,100883.73
2018-04-25T21:41:11.636Z,100892.44
2018-04-25T21:43:39.077Z,100880.00
2018-04-25T21:46:06.557Z,100878.16
2018-04-25T21:48:34.002Z,100883.67
2018-04-25T21:51:01.474Z,100884.69
2018-04-25T21:53:28.904Z,100893.50
2018-04-25T21:55:56.361Z,100886.41
2018-04-25T21:58:23.844Z,100890.45
2018-04-25T22:00:51.377Z,100887.38
2018-04-25T22:03:18.849Z,100900.02
2018-04-25T22:05:46.313Z,100896.59
2018-04-25T22:08:13.876Z,100895.98
2018-04-25T22:10:41.321Z,100900.89
2018-04-25T22:13:08.776Z,100890.73
2018-04-25T22:15:36.209Z,100889.64
2018-04-25T22:18:03.705Z,100892.94
2018-04-25T22:20:31.148Z,100894.98
2018-04-25T22:22:58.707Z,100870.58
2018-04-25T22:25:26.157Z,100896.59
2018-04-25T22:27:53.638Z,100886.08
2018-04-25T22:30:21.087Z,100902.05
2018-04-25T22:32:48.636Z,100910.05
2018-04-25T22:35:16.080Z,100907.48
2018-04-25T22:37:43.553Z,100904.17
2018-04-25T22:40:10.993Z,100901.72
2018-04-25T22:42:38.453Z,100898.48
2018-04-25T22:45:05.926Z,100902.61
2018-04-25T22:47:33.401Z,100901.48
2018-04-25T22:50:00.829Z,100906.66
2018-04-25T22:52:28.296Z,100898.99
2018-04-25T22:54:55.748Z,100906.44
2018-04-25T22:57:23.237Z,100906.40
2018-04-25T22:59:51.665Z,100900.12
2018-04-25T23:02:19.767Z,100915.37
2018-04-25T23:04:49.190Z,100912.58
2018-04-25T23:07:16.654Z,100914.03
2018-04-25T23:09:45.106Z,100903.80
2018-04-25T23:12:12.550Z,100912.47
2018-04-25T23:14:40.478Z,100924.02
2018-04-25T23:17:10.776Z,100921.91
2018-04-25T23:19:41.218Z,100908.37
2018-04-25T23:22:14.345Z,100918.84
2018-04-25T23:27:18.739Z,100911.72
2018-04-25T23:29:48.124Z,100918.66
2018-04-25T23:32:19.272Z,100917.41
2018-04-25T23:34:50.745Z,100923.45
2018-04-25T23:37:23.482Z,100924.51
2018-04-25T23:39:54.414Z,100928.80
2018-04-25T23:42:27.591Z,100926.83
2018-04-25T23:44:59.287Z,100925.97
2018-04-25T23:50:11.495Z,100927.53
2018-04-25T23:57:56.692Z,100931.84
